Time;durP1;ratioP1;P1;durP2;ratioP2;P2;SDS_P1;SDS_P2;PMS_P1;PMS_P2;Temp;Humidity;BMP_temperature;BMP_pressure;BME280_temperature;BME280_humidity;BME280_pressure;Samples;Min_cycle;Max_cycle;Signal;HPM_P1;HPM_P2
2021/05/05 00:00:36;;;;;;;1.45;1.00;;;7.30;87.40;;;;;;5052482;28;20499;-77
2021/05/05 00:03:02;;;;;;;1.77;1.20;;;7.30;87.30;;;;;;5034473;28;20040;-77
2021/05/05 00:05:27;;;;;;;4.50;1.17;;;7.30;87.40;;;;;;5046150;28;20040;-76
2021/05/05 00:07:53;;;;;;;2.13;0.65;;;7.30;87.30;;;;;;5042364;28;20041;-77
2021/05/05 00:10:18;;;;;;;4.63;1.50;;;7.30;87.20;;;;;;5023189;28;20097;-77
2021/05/05 00:12:44;;;;;;;3.00;1.10;;;7.30;87.20;;;;;;5016282;28;20509;-77
2021/05/05 00:15:12;;;;;;;2.03;1.17;;;7.30;87.20;;;;;;5027528;28;20039;-77
2021/05/05 00:17:38;;;;;;;2.20;0.75;;;7.30;87.50;;;;;;5033060;28;20395;-77
2021/05/05 00:20:05;;;;;;;3.10;1.05;;;7.30;87.40;;;;;;5017209;28;20024;-77
2021/05/05 00:22:30;;;;;;;8.32;0.77;;;7.30;87.60;;;;;;5016473;28;20032;-77
2021/05/05 00:24:56;;;;;;;4.40;1.00;;;7.20;87.60;;;;;;5015091;28;20564;-77
2021/05/05 00:27:21;;;;;;;1.70;0.90;;;7.20;87.40;;;;;;5016511;28;20051;-77
2021/05/05 00:29:47;;;;;;;1.65;0.90;;;7.20;87.40;;;;;;5046759;28;20427;-77
2021/05/05 00:32:12;;;;;;;2.75;0.82;;;7.20;87.30;;;;;;5030574;28;20698;-77
2021/05/05 00:34:38;;;;;;;1.48;1.13;;;7.20;87.40;;;;;;5034636;28;20503;-77
2021/05/05 00:37:03;;;;;;;1.60;1.00;;;7.20;87.40;;;;;;5016549;28;20060;-77
2021/05/05 00:39:29;;;;;;;1.77;0.80;;;7.20;87.20;;;;;;5043995;28;20249;-77
2021/05/05 00:41:54;;;;;;;1.55;0.68;;;7.20;87.40;;;;;;5045821;28;20411;-77
2021/05/05 00:44:23;;;;;;;2.30;0.80;;;7.20;87.40;;;;;;5015815;28;20033;-77
2021/05/05 00:46:48;;;;;;;4.60;0.90;;;7.10;87.20;;;;;;5032425;28;20120;-77
2021/05/05 00:49:14;;;;;;;5.57;1.00;;;7.10;87.10;;;;;;5033157;28;20163;-77
2021/05/05 00:51:39;;;;;;;1.58;0.70;;;7.10;87.00;;;;;;5030394;28;20032;-77
2021/05/05 00:54:06;;;;;;;2.15;0.80;;;7.10;87.10;;;;;;5026701;28;20078;-77
2021/05/05 00:56:32;;;;;;;4.32;1.13;;;7.10;87.00;;;;;;5011778;28;20071;-77
2021/05/05 00:58:57;;;;;;;3.00;1.10;;;7.00;87.20;;;;;;5032096;28;20409;-77
2021/05/05 01:01:23;;;;;;;4.78;1.00;;;7.10;87.40;;;;;;5027672;28;20036;-77
2021/05/05 01:03:48;;;;;;;3.92;0.50;;;7.00;87.20;;;;;;5047047;28;20021;-76
2021/05/05 01:06:14;;;;;;;1.42;1.10;;;7.10;87.10;;;;;;5026145;28;20329;-77
2021/05/05 01:08:39;;;;;;;5.88;1.08;;;7.10;87.10;;;;;;5035368;28;20051;-77
2021/05/05 01:11:05;;;;;;;1.48;1.02;;;7.00;87.20;;;;;;5030173;28;20032;-77
2021/05/05 01:13:31;;;;;;;1.70;1.10;;;7.00;87.40;;;;;;5024532;28;20138;-77
2021/05/05 01:15:56;;;;;;;1.60;1.05;;;6.90;87.20;;;;;;5044651;28;20029;-77
2021/05/05 01:18:22;;;;;;;1.10;1.00;;;6.90;87.30;;;;;;5021102;28;20036;-77
2021/05/05 01:20:47;;;;;;;2.90;0.90;;;7.00;87.20;;;;;;5035523;28;20424;-77
2021/05/05 01:23:13;;;;;;;2.25;0.90;;;7.00;87.10;;;;;;5030576;28;20024;-77
2021/05/05 01:25:39;;;;;;;1.30;1.05;;;7.00;86.70;;;;;;5017188;28;20032;-77
2021/05/05 01:28:04;;;;;;;2.20;1.20;;;6.90;87.10;;;;;;5031080;28;20025;-76
2021/05/05 01:30:30;;;;;;;1.20;0.60;;;6.90;87.20;;;;;;5011561;28;20071;-77
2021/05/05 01:32:55;;;;;;;1.35;0.85;;;7.00;87.00;;;;;;5015537;28;20021;-77
2021/05/05 01:35:21;;;;;;;6.03;1.40;;;6.90;87.20;;;;;;5026485;28;20074;-77
2021/05/05 01:37:48;;;;;;;2.85;1.13;;;6.90;87.30;;;;;;5031018;28;20025;-77
2021/05/05 01:40:23;;;;;;;5.07;1.60;;;6.90;87.20;;;;;;5029680;28;20085;-77
2021/05/05 01:42:49;;;;;;;3.25;1.10;;;6.90;87.00;;;;;;5016173;28;20040;-77
2021/05/05 01:45:14;;;;;;;0.68;0.65;;;6.90;87.20;;;;;;5025954;28;20548;-77
2021/05/05 01:47:40;;;;;;;1.52;1.00;;;6.90;87.30;;;;;;5031947;28;20364;-77
2021/05/05 01:50:06;;;;;;;0.63;0.55;;;6.80;87.30;;;;;;5027698;28;20029;-77
2021/05/05 01:52:32;;;;;;;3.00;1.20;;;6.80;87.30;;;;;;5032897;28;20036;-76
2021/05/05 01:54:57;;;;;;;0.68;0.35;;;6.80;87.40;;;;;;5018243;28;20028;-77
2021/05/05 01:57:30;;;;;;;0.73;0.60;;;6.80;87.60;;;;;;5024183;28;20033;-77
2021/05/05 01:59:56;;;;;;;2.55;0.93;;;6.90;87.50;;;;;;5065300;28;20031;-77
2021/05/05 02:02:22;;;;;;;1.48;0.65;;;6.80;87.40;;;;;;5032619;28;20414;-77
2021/05/05 02:04:47;;;;;;;3.20;0.95;;;6.80;87.50;;;;;;5032457;28;20028;-77
2021/05/05 02:07:13;;;;;;;1.25;0.60;;;6.90;87.90;;;;;;5032464;28;20478;-77
2021/05/05 02:09:39;;;;;;;1.75;1.10;;;6.80;87.90;;;;;;5024992;28;20515;-77
2021/05/05 02:12:05;;;;;;;3.97;1.10;;;6.80;88.30;;;;;;5028195;28;20032;-77
2021/05/05 02:14:30;;;;;;;3.40;1.05;;;6.80;88.40;;;;;;5016303;28;20039;-77
2021/05/05 02:16:57;;;;;;;1.52;1.20;;;6.80;88.70;;;;;;5028462;28;20040;-77
2021/05/05 02:19:22;;;;;;;0.47;0.40;;;6.80;88.70;;;;;;5041668;28;20110;-77
2021/05/05 02:21:48;;;;;;;2.80;1.92;;;6.70;88.80;;;;;;5031734;28;20510;-77
2021/05/05 02:24:13;;;;;;;6.28;1.85;;;6.70;88.50;;;;;;5028123;28;20032;-77
2021/05/05 02:26:39;;;;;;;3.05;1.33;;;6.70;89.00;;;;;;5043348;28;20039;-77
2021/05/05 02:29:05;;;;;;;3.25;1.42;;;6.60;88.90;;;;;;5027666;28;20055;-77
2021/05/05 02:31:30;;;;;;;1.73;1.38;;;6.60;88.80;;;;;;5016678;28;20055;-77
2021/05/05 02:33:56;;;;;;;5.57;1.90;;;6.60;89.20;;;;;;5032155;28;20562;-77
2021/05/05 02:36:21;;;;;;;6.75;2.22;;;6.60;89.50;;;;;;5030458;28;20040;-76
2021/05/05 02:38:47;;;;;;;2.00;1.23;;;6.50;89.30;;;;;;5023543;28;20388;-76
2021/05/05 02:41:12;;;;;;;6.32;1.75;;;6.50;89.50;;;;;;5031773;28;20063;-77
2021/05/05 02:43:38;;;;;;;3.40;1.40;;;6.50;89.30;;;;;;5028004;28;20042;-76
2021/05/05 02:46:03;;;;;;;1.45;1.00;;;6.50;89.40;;;;;;5044627;28;20040;-77
2021/05/05 02:48:29;;;;;;;2.55;1.20;;;6.60;89.30;;;;;;5031890;28;20032;-77
2021/05/05 02:50:54;;;;;;;0.95;0.88;;;6.50;89.60;;;;;;5051908;28;20032;-77
2021/05/05 02:53:20;;;;;;;2.25;1.52;;;6.50;89.60;;;;;;5026808;28;20040;-77
2021/05/05 02:55:45;;;;;;;3.10;1.27;;;6.40;89.80;;;;;;5028251;28;20028;-77
2021/05/05 02:58:11;;;;;;;2.13;1.70;;;6.40;89.60;;;;;;5045979;28;20150;-76
2021/05/05 03:00:36;;;;;;;2.63;0.82;;;6.30;90.00;;;;;;5036033;28;20043;-77
2021/05/05 03:03:02;;;;;;;2.38;1.40;;;6.40;89.70;;;;;;5033180;28;20043;-77
2021/05/05 03:05:27;;;;;;;2.40;1.70;;;6.40;89.70;;;;;;5052417;28;20044;-77
2021/05/05 03:07:53;;;;;;;1.95;1.33;;;6.30;89.50;;;;;;5049709;28;20538;-76
2021/05/05 03:10:18;;;;;;;3.60;1.95;;;6.30;89.40;;;;;;5018320;28;20045;-78
2021/05/05 03:12:44;;;;;;;2.47;1.25;;;6.30;89.50;;;;;;5039073;28;20035;-76
2021/05/05 03:15:10;;;;;;;2.47;1.20;;;6.30;89.40;;;;;;5050607;28;20025;-76
2021/05/05 03:17:36;;;;;;;4.93;1.80;;;6.40;89.50;;;;;;5037672;28;20028;-76
2021/05/05 03:20:06;;;;;;;0.73;0.73;;;6.40;89.50;;;;;;5054293;28;20097;-77
2021/05/05 03:22:31;;;;;;;1.90;1.35;;;6.30;89.50;;;;;;5036514;28;20041;-76
2021/05/05 03:24:57;;;;;;;2.97;1.40;;;6.40;89.50;;;;;;5050217;28;20038;-77
2021/05/05 03:27:22;;;;;;;4.90;1.77;;;6.40;89.40;;;;;;5018782;28;20033;-77
2021/05/05 03:29:48;;;;;;;1.20;1.10;;;6.30;89.40;;;;;;5035896;28;20033;-77
2021/05/05 03:32:13;;;;;;;3.30;2.35;;;6.40;89.70;;;;;;5070145;28;20040;-77
2021/05/05 03:34:39;;;;;;;2.15;1.65;;;6.40;89.70;;;;;;5037510;28;20067;-77
2021/05/05 03:37:04;;;;;;;3.40;1.83;;;6.30;89.60;;;;;;5034809;28;21553;-77
2021/05/05 03:39:30;;;;;;;3.75;2.17;;;6.30;89.40;;;;;;5016600;28;20060;-77
2021/05/05 03:41:56;;;;;;;3.72;2.28;;;6.30;89.70;;;;;;5031485;28;20024;-76
2021/05/05 03:44:21;;;;;;;3.97;2.13;;;6.30;89.80;;;;;;5023357;28;20112;-77
2021/05/05 03:46:47;;;;;;;5.22;2.83;;;6.20;90.10;;;;;;5036176;28;20067;-77
2021/05/05 03:49:12;;;;;;;4.10;3.17;;;6.20;90.20;;;;;;5030335;28;20032;-77
2021/05/05 03:51:38;;;;;;;8.18;2.45;;;6.10;90.40;;;;;;5048441;28;20036;-76
2021/05/05 03:54:04;;;;;;;4.25;3.10;;;6.10;90.20;;;;;;5032165;28;20028;-77
2021/05/05 03:56:29;;;;;;;3.60;2.60;;;6.00;90.20;;;;;;5017684;28;20036;-77
2021/05/05 03:58:55;;;;;;;9.63;3.05;;;6.10;90.20;;;;;;5028155;28;20035;-77
2021/05/05 04:01:20;;;;;;;3.38;2.08;;;6.10;90.50;;;;;;5031487;28;20048;-77
2021/05/05 04:03:46;;;;;;;8.38;3.88;;;6.00;90.40;;;;;;5052489;28;20028;-77
2021/05/05 04:06:11;;;;;;;5.90;3.35;;;6.00;90.60;;;;;;5050218;28;20248;-77
2021/05/05 04:08:37;;;;;;;3.22;2.90;;;6.00;90.60;;;;;;5017287;28;20040;-77
2021/05/05 04:11:03;;;;;;;8.02;3.05;;;6.10;90.60;;;;;;5029104;28;20519;-77
2021/05/05 04:13:29;;;;;;;5.40;2.22;;;6.10;90.60;;;;;;5045790;28;20058;-77
2021/05/05 04:15:55;;;;;;;5.53;2.72;;;6.10;90.50;;;;;;5052191;28;20033;-77
2021/05/05 04:18:20;;;;;;;5.70;3.08;;;6.10;90.60;;;;;;5027667;28;20131;-77
2021/05/05 04:20:46;;;;;;;5.93;4.07;;;6.10;90.50;;;;;;5032059;28;20032;-77
2021/05/05 04:23:11;;;;;;;6.80;3.33;;;6.00;90.20;;;;;;5012912;28;20028;-76
2021/05/05 04:25:37;;;;;;;3.00;2.13;;;6.10;90.60;;;;;;5047432;28;20421;-77
2021/05/05 04:28:02;;;;;;;3.40;2.03;;;6.20;90.50;;;;;;5011411;28;20032;-77
2021/05/05 04:30:28;;;;;;;5.45;2.25;;;6.20;90.60;;;;;;5048402;28;20043;-77
2021/05/05 04:32:54;;;;;;;5.00;3.33;;;6.20;90.70;;;;;;5015383;28;20032;-77
2021/05/05 04:35:19;;;;;;;5.63;3.15;;;6.20;90.60;;;;;;5027956;28;20043;-77
2021/05/05 04:37:45;;;;;;;7.82;5.43;;;6.20;90.80;;;;;;5021197;28;20036;-77
2021/05/05 04:40:11;;;;;;;5.82;2.67;;;6.10;91.20;;;;;;5033497;28;20032;-77
2021/05/05 04:42:37;;;;;;;8.55;3.90;;;6.10;91.20;;;;;;5033993;28;20498;-77
2021/05/05 04:45:06;;;;;;;6.75;4.25;;;6.10;91.10;;;;;;5017673;28;20108;-77
2021/05/05 04:47:32;;;;;;;4.07;2.97;;;6.20;91.00;;;;;;5017919;28;20036;-77
2021/05/05 04:49:58;;;;;;;4.95;4.03;;;6.10;91.10;;;;;;5027842;28;20332;-78
2021/05/05 04:52:23;;;;;;;8.93;4.55;;;6.00;91.40;;;;;;5030580;28;20035;-77
2021/05/05 04:54:49;;;;;;;4.30;2.63;;;6.10;91.40;;;;;;5034672;28;20036;-77
2021/05/05 04:57:14;;;;;;;8.60;4.47;;;6.20;91.10;;;;;;5018452;28;20056;-77
2021/05/05 04:59:40;;;;;;;4.35;3.15;;;6.20;91.20;;;;;;5020134;28;20031;-76
2021/05/05 05:02:07;;;;;;;7.25;4.97;;;6.20;91.00;;;;;;5054238;28;20052;-78
2021/05/05 05:04:35;;;;;;;5.07;3.92;;;6.30;91.10;;;;;;5011644;28;20056;-77
2021/05/05 05:07:01;;;;;;;8.95;5.78;;;6.30;91.10;;;;;;5016776;28;20051;-76
2021/05/05 05:09:26;;;;;;;9.00;5.15;;;6.30;91.10;;;;;;5047892;28;20033;-76
2021/05/05 05:11:52;;;;;;;7.00;4.78;;;6.30;91.10;;;;;;5043728;28;20082;-77
2021/05/05 05:14:17;;;;;;;5.47;3.75;;;6.30;91.20;;;;;;5027497;28;20166;-77
2021/05/05 05:16:43;;;;;;;8.57;4.07;;;6.40;91.00;;;;;;5015616;28;20115;-76
2021/05/05 05:19:08;;;;;;;6.35;3.42;;;6.30;91.10;;;;;;5030974;28;20102;-77
2021/05/05 05:21:34;;;;;;;7.88;3.75;;;6.40;91.00;;;;;;5015366;28;20108;-77
2021/05/05 05:24:00;;;;;;;3.22;2.05;;;6.40;91.10;;;;;;5016619;28;20044;-77
2021/05/05 05:26:25;;;;;;;5.57;4.38;;;6.50;91.10;;;;;;5016867;28;20096;-77
2021/05/05 05:28:51;;;;;;;6.35;3.08;;;6.50;91.20;;;;;;5050138;28;20033;-77
2021/05/05 05:31:16;;;;;;;6.05;4.93;;;6.50;91.10;;;;;;5016568;28;20393;-77
2021/05/05 05:33:42;;;;;;;4.82;3.95;;;6.60;91.20;;;;;;5017250;28;20787;-77
2021/05/05 05:36:07;;;;;;;7.55;4.95;;;6.60;91.00;;;;;;5016515;28;20422;-77
2021/05/05 05:38:33;;;;;;;5.72;3.92;;;6.60;91.00;;;;;;5024897;28;20047;-76
2021/05/05 05:40:58;;;;;;;6.78;3.35;;;6.60;91.00;;;;;;5046859;28;20020;-77
2021/05/05 05:43:24;;;;;;;7.65;4.82;;;6.60;90.90;;;;;;5016643;28;20029;-77
2021/05/05 05:45:49;;;;;;;8.18;2.63;;;6.60;91.00;;;;;;5032768;28;20024;-77
2021/05/05 05:48:15;;;;;;;6.22;3.38;;;6.60;90.80;;;;;;5015419;28;20522;-77
2021/05/05 05:50:40;;;;;;;3.28;2.85;;;6.60;90.80;;;;;;5015174;28;20024;-77
2021/05/05 05:53:06;;;;;;;6.53;3.05;;;6.60;90.80;;;;;;5045198;28;20029;-77
2021/05/05 05:55:33;;;;;;;3.45;2.08;;;6.50;90.70;;;;;;5028981;28;20052;-77
2021/05/05 05:57:59;;;;;;;2.58;2.03;;;6.60;90.70;;;;;;5016656;28;20021;-77
2021/05/05 06:00:24;;;;;;;3.50;2.42;;;6.60;90.60;;;;;;5015908;28;20487;-77
2021/05/05 06:02:50;;;;;;;7.47;3.38;;;6.50;90.80;;;;;;5049793;28;20033;-77
2021/05/05 06:05:16;;;;;;;3.65;2.35;;;6.50;90.90;;;;;;5028117;28;20473;-77
2021/05/05 06:07:41;;;;;;;8.65;3.60;;;6.50;90.90;;;;;;5028862;28;20096;-77
2021/05/05 06:10:08;;;;;;;2.55;2.13;;;6.40;91.20;;;;;;5021068;28;20589;-77
2021/05/05 06:12:34;;;;;;;4.40;3.15;;;6.40;91.30;;;;;;5015983;28;20047;-77
2021/05/05 06:14:59;;;;;;;3.10;2.10;;;6.40;91.30;;;;;;5019655;28;20036;-77
2021/05/05 06:17:25;;;;;;;3.40;2.45;;;6.40;91.30;;;;;;5016090;28;20516;-76
2021/05/05 06:19:50;;;;;;;7.00;4.38;;;6.40;91.70;;;;;;5031706;28;20326;-77
2021/05/05 06:22:16;;;;;;;6.13;4.55;;;6.40;91.50;;;;;;5046849;28;20032;-77
2021/05/05 06:24:41;;;;;;;2.58;2.15;;;6.30;91.80;;;;;;5016682;28;20036;-77
2021/05/05 06:27:07;;;;;;;6.20;3.33;;;6.30;91.80;;;;;;5008529;28;20055;-77
2021/05/05 06:29:36;;;;;;;10.90;5.53;;;6.30;92.00;;;;;;5042823;28;20078;-77
2021/05/05 06:32:01;;;;;;;7.00;3.58;;;6.30;92.10;;;;;;5029640;28;20043;-76
2021/05/05 06:34:27;;;;;;;7.15;5.57;;;6.30;91.90;;;;;;5016091;28;20033;-76
2021/05/05 06:36:52;;;;;;;6.88;2.92;;;6.30;91.80;;;;;;5034946;28;20036;-77
2021/05/05 06:39:18;;;;;;;10.13;5.72;;;6.30;92.00;;;;;;5029436;28;20064;-77
2021/05/05 06:41:43;;;;;;;7.57;4.25;;;6.30;92.10;;;;;;5047230;28;20093;-76
2021/05/05 06:44:09;;;;;;;9.63;7.43;;;6.30;92.30;;;;;;5022639;28;20071;-76
2021/05/05 06:46:35;;;;;;;4.60;3.03;;;6.20;92.20;;;;;;5036178;28;20048;-77
2021/05/05 06:49:00;;;;;;;6.25;4.38;;;6.20;92.30;;;;;;5016639;28;20028;-76
2021/05/05 06:51:26;;;;;;;12.00;4.10;;;6.10;92.30;;;;;;5022778;28;20047;-77
2021/05/05 06:53:52;;;;;;;7.78;3.15;;;6.00;92.40;;;;;;5050770;28;20029;-77
2021/05/05 06:56:17;;;;;;;8.52;2.97;;;5.90;92.30;;;;;;5035875;28;20040;-77
2021/05/05 06:58:43;;;;;;;4.68;3.15;;;5.80;92.40;;;;;;5016213;28;20052;-77
2021/05/05 07:01:09;;;;;;;6.55;3.88;;;5.70;92.40;;;;;;5046776;28;20029;-77
2021/05/05 07:03:34;;;;;;;4.63;4.00;;;5.70;92.10;;;;;;5032352;28;20048;-77
2021/05/05 07:06:01;;;;;;;3.85;3.45;;;5.70;92.10;;;;;;5032484;28;20059;-77
2021/05/05 07:08:27;;;;;;;5.60;3.83;;;5.80;92.00;;;;;;5017408;28;20071;-77
2021/05/05 07:10:53;;;;;;;3.42;3.03;;;5.80;92.00;;;;;;5028547;28;20444;-77
2021/05/05 07:13:18;;;;;;;3.78;3.42;;;5.70;92.30;;;;;;5032137;28;20120;-77
2021/05/05 07:15:45;;;;;;;4.80;3.63;;;5.70;92.20;;;;;;5037630;28;20032;-77
2021/05/05 07:18:10;;;;;;;8.35;4.18;;;5.70;92.30;;;;;;5019699;28;20040;-77
2021/05/05 07:20:36;;;;;;;4.07;3.33;;;5.60;92.20;;;;;;5032076;28;20029;-76
2021/05/05 07:23:01;;;;;;;3.65;2.63;;;5.70;92.40;;;;;;5047029;28;20044;-77
2021/05/05 07:25:27;;;;;;;0.98;0.88;;;5.70;92.30;;;;;;5049832;28;20442;-77
2021/05/05 07:27:53;;;;;;;3.78;2.33;;;5.80;92.30;;;;;;5028178;28;20384;-77
2021/05/05 07:30:18;;;;;;;3.30;2.28;;;5.80;92.40;;;;;;5032930;28;20075;-77
2021/05/05 07:32:44;;;;;;;4.43;2.78;;;5.90;92.40;;;;;;5016991;28;20032;-77
2021/05/05 07:35:10;;;;;;;3.17;2.80;;;6.00;92.40;;;;;;5032542;28;20506;-77
2021/05/05 07:40:36;;;;;;;4.93;1.95;;;6.20;92.40;;;;;;5047000;28;20160;-77
2021/05/05 07:48:02;;;;;;;6.43;2.28;;;6.60;93.20;;;;;;5052020;28;20048;-77
2021/05/05 07:50:27;;;;;;;2.72;2.47;;;6.80;92.00;;;;;;5034467;28;20036;-77
2021/05/05 07:52:53;;;;;;;7.00;4.20;;;6.90;92.40;;;;;;5031381;28;20029;-77
2021/05/05 07:55:20;;;;;;;3.80;3.25;;;6.80;92.50;;;;;;5028109;28;20074;-77
2021/05/05 07:57:46;;;;;;;6.00;4.03;;;6.80;92.40;;;;;;5032552;28;20032;-77
2021/05/05 08:00:12;;;;;;;5.65;3.85;;;6.90;92.50;;;;;;5016758;28;20033;-77
2021/05/05 08:02:38;;;;;;;2.47;2.13;;;7.00;92.50;;;;;;5032518;28;20499;-77
2021/05/05 08:05:04;;;;;;;4.03;2.70;;;6.90;92.40;;;;;;5051991;28;20036;-77
2021/05/05 08:07:30;;;;;;;3.88;2.90;;;6.90;92.40;;;;;;5018112;28;20533;-77
2021/05/05 08:09:55;;;;;;;3.05;2.35;;;6.80;92.40;;;;;;5032447;28;20052;-77
2021/05/05 08:12:21;;;;;;;3.70;3.20;;;6.90;92.40;;;;;;5037136;28;20040;-77
2021/05/05 08:14:47;;;;;;;2.97;1.48;;;7.00;92.40;;;;;;5028930;28;20024;-77
2021/05/05 08:17:12;;;;;;;2.42;2.22;;;6.90;92.10;;;;;;5035998;28;20163;-77
2021/05/05 08:19:38;;;;;;;4.05;2.08;;;6.90;92.40;;;;;;5034207;28;20052;-77
2021/05/05 08:22:04;;;;;;;3.15;1.88;;;7.00;92.30;;;;;;5017596;28;20032;-77
2021/05/05 08:24:29;;;;;;;1.92;1.30;;;7.10;92.30;;;;;;5046030;28;20028;-77
2021/05/05 08:26:56;;;;;;;2.28;1.80;;;7.30;92.60;;;;;;5046452;28;20060;-76
2021/05/05 08:29:22;;;;;;;2.22;1.55;;;7.40;92.00;;;;;;5028737;28;20044;-77
2021/05/05 08:31:47;;;;;;;3.70;1.60;;;7.60;92.30;;;;;;5035128;28;20099;-78
2021/05/05 08:34:13;;;;;;;1.83;1.25;;;7.70;92.60;;;;;;5017091;28;20112;-77
2021/05/05 08:36:39;;;;;;;2.17;1.60;;;7.90;92.40;;;;;;5032248;28;20448;-78
2021/05/05 08:39:05;;;;;;;1.65;1.23;;;8.30;92.40;;;;;;5030484;28;20044;-77
2021/05/05 08:41:32;;;;;;;1.90;1.48;;;8.40;91.70;;;;;;5032414;28;20040;-77
2021/05/05 08:43:57;;;;;;;3.42;2.22;;;8.30;91.70;;;;;;5034185;28;20041;-77
2021/05/05 08:46:23;;;;;;;2.45;1.58;;;8.50;91.60;;;;;;5030525;28;20047;-77
2021/05/05 08:48:48;;;;;;;3.22;2.08;;;8.80;91.80;;;;;;5034356;28;20047;-77
2021/05/05 08:51:14;;;;;;;5.20;3.05;;;9.00;91.10;;;;;;5030137;28;20032;-78
2021/05/05 08:53:41;;;;;;;3.05;1.83;;;9.20;92.40;;;;;;5028115;28;20036;-78
2021/05/05 08:56:07;;;;;;;7.45;2.83;;;9.40;91.30;;;;;;5047178;28;20020;-78
2021/05/05 08:58:33;;;;;;;5.03;2.97;;;9.70;91.90;;;;;;5013862;28;20032;-77
2021/05/05 09:01:00;;;;;;;3.33;1.80;;;10.20;91.00;;;;;;5034922;28;20040;-78
2021/05/05 09:03:30;;;;;;;6.55;2.95;;;10.40;90.00;;;;;;5017399;28;20035;-78
2021/05/05 09:05:58;;;;;;;4.53;1.55;;;10.70;90.60;;;;;;5033786;28;20029;-78
2021/05/05 09:08:24;;;;;;;4.43;2.30;;;10.70;90.20;;;;;;5016180;28;20518;-78
2021/05/05 09:11:03;;;;;;;5.90;2.55;;;11.10;89.60;;;;;;5015091;28;20025;-77
2021/05/05 09:13:53;;;;;;;4.30;2.35;;;11.40;91.00;;;;;;5034068;28;20282;-78
2021/05/05 09:16:30;;;;;;;3.90;2.17;;;11.40;88.80;;;;;;5033730;28;20036;-77
2021/05/05 09:19:04;;;;;;;2.42;2.00;;;11.00;86.00;;;;;;5029701;28;20064;-77
2021/05/05 09:21:34;;;;;;;6.78;2.50;;;11.10;88.90;;;;;;5031537;28;20039;-77
2021/05/05 09:24:22;;;;;;;6.15;2.55;;;11.40;88.00;;;;;;5037157;28;20040;-77
2021/05/05 09:26:50;;;;;;;3.95;2.17;;;11.70;85.20;;;;;;5042633;28;20043;-77
2021/05/05 09:29:15;;;;;;;7.65;2.85;;;11.70;85.90;;;;;;5032367;28;20039;-77
2021/05/05 09:31:41;;;;;;;7.35;2.00;;;11.40;84.50;;;;;;5027692;28;20033;-77
2021/05/05 09:34:09;;;;;;;8.30;2.70;;;11.10;85.40;;;;;;5029772;28;20032;-77
2021/05/05 09:36:35;;;;;;;5.97;1.77;;;11.30;88.30;;;;;;5044444;28;20048;-77
2021/05/05 09:39:02;;;;;;;5.05;2.40;;;11.60;86.20;;;;;;5028649;28;20392;-77
2021/05/05 09:41:29;;;;;;;6.32;2.22;;;11.80;89.00;;;;;;5042202;28;20392;-77
2021/05/05 09:44:00;;;;;;;5.13;2.22;;;11.50;85.30;;;;;;5029692;28;20025;-78
2021/05/05 09:46:42;;;;;;;7.63;3.08;;;11.20;84.50;;;;;;5020540;28;20036;-78
2021/05/05 09:49:26;;;;;;;7.82;2.63;;;11.10;87.60;;;;;;5032556;28;20086;-77
2021/05/05 09:52:12;;;;;;;7.85;3.67;;;10.80;86.00;;;;;;5049391;28;20029;-77
2021/05/05 09:54:39;;;;;;;8.77;2.50;;;10.40;87.70;;;;;;5048313;28;20037;-78
2021/05/05 09:57:19;;;;;;;6.13;3.70;;;10.20;87.00;;;;;;5027128;28;20025;-78
2021/05/05 10:00:04;;;;;;;8.38;3.13;;;10.00;88.10;;;;;;5029702;28;20028;-78
2021/05/05 10:02:51;;;;;;;6.20;2.90;;;10.20;90.50;;;;;;5048501;28;20029;-77
2021/05/05 10:05:24;;;;;;;6.43;2.80;;;10.10;89.40;;;;;;5047874;28;20462;-78
2021/05/05 10:07:56;;;;;;;6.03;2.50;;;10.20;90.30;;;;;;5015765;28;20380;-78
2021/05/05 10:10:25;;;;;;;6.47;2.78;;;10.20;90.00;;;;;;5045850;28;20037;-78
2021/05/05 10:12:52;;;;;;;5.85;2.42;;;10.40;90.10;;;;;;5013154;28;20084;-77
2021/05/05 10:15:17;;;;;;;7.90;3.15;;;10.40;89.80;;;;;;5045400;28;25006;-78
2021/05/05 10:17:45;;;;;;;4.82;2.13;;;10.50;88.50;;;;;;5033529;28;20031;-78
2021/05/05 10:20:13;;;;;;;4.60;1.55;;;10.80;88.70;;;;;;5016179;28;20040;-77
2021/05/05 10:22:39;;;;;;;7.00;2.30;;;11.00;88.40;;;;;;5016769;28;20036;-78
2021/05/05 10:25:05;;;;;;;6.35;1.98;;;10.90;87.90;;;;;;5012895;28;20120;-78
2021/05/05 10:27:30;;;;;;;2.85;2.05;;;11.00;88.20;;;;;;5028958;28;20028;-77
2021/05/05 10:29:56;;;;;;;3.72;2.17;;;11.20;87.30;;;;;;5029443;28;20459;-78
2021/05/05 10:32:22;;;;;;;6.18;2.08;;;11.50;87.20;;;;;;5013795;28;20037;-77
2021/05/05 10:34:49;;;;;;;6.10;2.13;;;11.80;85.50;;;;;;5018381;28;20034;-77
2021/05/05 10:37:14;;;;;;;3.97;2.28;;;12.00;87.10;;;;;;5029918;28;20459;-78
2021/05/05 10:39:41;;;;;;;1.92;1.10;;;12.50;86.20;;;;;;5026503;28;20069;-78
2021/05/05 10:42:11;;;;;;;3.97;1.08;;;12.30;83.20;;;;;;5016493;28;20029;-78
2021/05/05 10:44:41;;;;;;;2.35;1.00;;;12.30;82.20;;;;;;5016945;28;20037;-78
2021/05/05 10:47:27;;;;;;;3.60;0.80;;;12.20;81.40;;;;;;5033237;28;20040;-78
2021/05/05 10:49:59;;;;;;;4.67;1.10;;;12.30;82.70;;;;;;5013807;28;20032;-78
2021/05/05 10:52:25;;;;;;;1.65;0.80;;;12.40;81.10;;;;;;5047225;28;20673;-78
2021/05/05 10:54:55;;;;;;;1.20;0.77;;;12.10;80.50;;;;;;5045965;28;20111;-78
2021/05/05 10:57:22;;;;;;;6.22;1.45;;;12.50;82.30;;;;;;5032335;28;20044;-77
2021/05/05 11:00:09;;;;;;;3.58;1.40;;;12.70;82.20;;;;;;5013526;28;20036;-78
2021/05/05 11:02:46;;;;;;;3.10;1.33;;;12.40;79.30;;;;;;5042864;28;20040;-78
2021/05/05 11:05:16;;;;;;;4.15;1.67;;;12.40;82.00;;;;;;5044844;28;20028;-78
2021/05/05 11:07:54;;;;;;;3.42;1.83;;;12.70;82.30;;;;;;5028460;28;20578;-79
2021/05/05 11:10:37;;;;;;;7.65;3.05;;;12.60;82.80;;;;;;5030982;28;20458;-78
2021/05/05 11:13:17;;;;;;;5.10;2.30;;;12.40;84.40;;;;;;5063301;28;20028;-78
2021/05/05 11:15:45;;;;;;;3.95;1.63;;;12.40;85.40;;;;;;5065777;28;20345;-78
2021/05/05 11:18:38;;;;;;;5.00;2.10;;;12.00;83.90;;;;;;5069347;28;20056;-78
2021/05/05 11:21:11;;;;;;;4.75;1.85;;;12.00;85.80;;;;;;5067276;28;20035;-78
2021/05/05 11:23:43;;;;;;;2.67;1.33;;;11.70;83.40;;;;;;5018901;28;20145;-77
2021/05/05 11:26:33;;;;;;;4.75;2.08;;;11.20;83.70;;;;;;5048547;28;20108;-78
2021/05/05 11:29:03;;;;;;;4.20;1.85;;;11.20;85.00;;;;;;5032748;28;20132;-78
2021/05/05 11:31:47;;;;;;;6.97;2.10;;;11.30;86.30;;;;;;5047110;28;20032;-77
2021/05/05 11:34:19;;;;;;;3.60;1.35;;;11.50;87.00;;;;;;5052035;28;20077;-78
2021/05/05 11:36:45;;;;;;;5.65;2.33;;;11.50;86.80;;;;;;5070073;28;20102;-77
2021/05/05 11:39:21;;;;;;;10.63;2.53;;;11.10;85.90;;;;;;5036657;28;20567;-78
2021/05/05 11:41:53;;;;;;;9.17;2.70;;;10.80;86.60;;;;;;5033463;28;20032;-77
2021/05/05 11:44:42;;;;;;;2.80;1.85;;;10.40;87.10;;;;;;5015582;28;20350;-77
2021/05/05 11:47:39;;;;;;;3.63;1.73;;;10.10;86.70;;;;;;5034694;28;20070;-78
2021/05/05 11:50:05;;;;;;;4.32;1.38;;;9.80;88.50;;;;;;5035667;28;20127;-77
2021/05/05 11:52:44;;;;;;;1.92;0.90;;;9.50;88.90;;;;;;5072245;28;20082;-76
2021/05/05 11:55:09;;;;;;;2.45;0.90;;;9.30;88.90;;;;;;5020946;28;20119;-76
2021/05/05 11:57:36;;;;;;;1.55;1.23;;;9.10;89.00;;;;;;5041860;28;20060;-79
2021/05/05 12:00:12;;;;;;;1.75;0.95;;;8.90;89.20;;;;;;5015600;28;20073;-77
2021/05/05 12:02:49;;;;;;;1.23;0.63;;;8.90;89.20;;;;;;5042500;28;20492;-79
2021/05/05 12:05:37;;;;;;;2.03;0.82;;;8.90;89.40;;;;;;5044228;28;20082;-78
2021/05/05 12:08:16;;;;;;;1.98;0.80;;;9.00;89.80;;;;;;5026717;28;20043;-76
2021/05/05 12:10:52;;;;;;;0.70;0.43;;;9.10;90.40;;;;;;5014631;28;20128;-77
2021/05/05 12:13:25;;;;;;;2.08;0.75;;;9.30;89.90;;;;;;5016614;28;20029;-76
2021/05/05 12:16:00;;;;;;;2.63;1.02;;;9.50;90.20;;;;;;5004707;28;20029;-78
2021/05/05 12:18:37;;;;;;;5.45;1.13;;;9.70;89.50;;;;;;5046933;28;20476;-78
2021/05/05 12:21:16;;;;;;;2.63;1.20;;;9.90;90.40;;;;;;5033611;28;20086;-80
2021/05/05 12:23:46;;;;;;;2.63;1.13;;;10.20;89.00;;;;;;5020418;28;20033;-77
2021/05/05 12:26:50;;;;;;;3.47;1.17;;;10.60;90.30;;;;;;5016753;28;20029;-77
2021/05/05 12:29:19;;;;;;;5.03;1.58;;;10.80;87.40;;;;;;5015086;28;20125;-77
2021/05/05 12:31:45;;;;;;;5.00;2.20;;;10.80;88.40;;;;;;5013126;28;20048;-78
2021/05/05 12:34:11;;;;;;;3.05;1.50;;;11.40;90.70;;;;;;5000264;28;20048;-77
2021/05/05 12:36:40;;;;;;;3.88;1.92;;;11.90;88.80;;;;;;4999450;28;20033;-79
2021/05/05 12:39:13;;;;;;;4.75;1.35;;;12.10;89.70;;;;;;5024080;28;20070;-77
2021/05/05 12:41:56;;;;;;;2.53;1.33;;;12.40;89.90;;;;;;5017452;28;20036;-78
2021/05/05 12:44:32;;;;;;;5.38;1.58;;;12.70;90.70;;;;;;5029981;28;20028;-78
2021/05/05 12:46:58;;;;;;;5.20;1.52;;;12.70;89.70;;;;;;5035039;28;20047;-77
2021/05/05 12:49:37;;;;;;;3.63;1.33;;;12.30;86.90;;;;;;5013243;28;20074;-77
2021/05/05 12:52:04;;;;;;;4.05;1.00;;;12.00;87.50;;;;;;5035814;28;20031;-78
2021/05/05 12:54:32;;;;;;;1.90;1.17;;;11.40;85.90;;;;;;5021159;28;20039;-76
2021/05/05 12:56:58;;;;;;;1.90;0.90;;;10.60;85.60;;;;;;5038940;28;20063;-77
2021/05/05 12:59:29;;;;;;;5.40;0.98;;;10.10;87.20;;;;;;5034048;28;20078;-77
2021/05/05 13:02:11;;;;;;;3.15;1.27;;;9.70;87.90;;;;;;5029102;28;20049;-77
2021/05/05 13:04:42;;;;;;;8.73;1.80;;;9.30;88.20;;;;;;5019777;28;20573;-78
2021/05/05 13:07:30;;;;;;;1.70;1.10;;;9.00;88.90;;;;;;5004829;28;20036;-77